Time;durP1;ratioP1;P1;durP2;ratioP2;P2;SDS_P1;SDS_P2;PMS_P1;PMS_P2;Temp;Humidity;BMP_temperature;BMP_pressure;BME280_temperature;BME280_humidity;BME280_pressure;Samples;Min_cycle;Max_cycle;Signal;HPM_P1;HPM_P2
2022/01/23 00:01:13;;;;;;;26.63;19.50;;;6.20;99.90;;;;;;5071451;28;20419;-50
2022/01/23 00:03:45;;;;;;;32.33;20.05;;;6.10;99.90;;;;;;5072565;28;20424;-48
2022/01/23 00:06:12;;;;;;;35.87;20.57;;;6.20;99.90;;;;;;5072394;28;20600;-49
2022/01/23 00:08:38;;;;;;;27.87;18.10;;;6.20;99.90;;;;;;5071899;28;20464;-50
2022/01/23 00:11:07;;;;;;;30.40;19.10;;;6.20;99.90;;;;;;5072185;28;20478;-50
2022/01/23 00:17:12;;;;;;;27.13;18.00;;;6.20;99.90;;;;;;5072260;28;20450;-49
2022/01/23 00:19:05;;;;;;;28.60;17.23;;;6.20;99.90;;;;;;5071619;28;20790;-50
2022/01/23 00:21:34;;;;;;;22.57;16.17;;;6.20;99.90;;;;;;5071712;28;20421;-49
2022/01/23 00:32:13;;;;;;;19.13;14.07;;;6.30;99.90;;;;;;5071928;28;20454;-49
2022/01/23 00:34:41;;;;;;;19.17;15.93;;;6.30;99.90;;;;;;5054027;28;20785;-49
2022/01/23 00:37:08;;;;;;;24.17;15.47;;;6.30;99.90;;;;;;5071454;28;20413;-49
2022/01/23 00:39:35;;;;;;;24.47;15.03;;;6.30;99.90;;;;;;5070990;28;20451;-49
2022/01/23 00:42:01;;;;;;;24.20;16.03;;;6.30;99.90;;;;;;5071667;28;20434;-49
2022/01/23 00:44:29;;;;;;;17.83;13.67;;;6.30;99.90;;;;;;5053761;28;20426;-50
2022/01/23 00:46:56;;;;;;;21.50;14.77;;;6.40;99.90;;;;;;5071647;28;20439;-49
2022/01/23 00:49:25;;;;;;;19.67;14.67;;;6.30;99.90;;;;;;5071349;28;20432;-49
2022/01/23 00:51:55;;;;;;;19.90;13.53;;;6.40;99.90;;;;;;5071997;28;20431;-49
2022/01/23 00:54:22;;;;;;;18.07;14.43;;;6.30;99.90;;;;;;5053843;28;20995;-50
2022/01/23 00:56:49;;;;;;;17.80;13.33;;;6.40;99.90;;;;;;5054150;28;20462;-50
2022/01/23 00:59:16;;;;;;;20.23;13.70;;;6.40;99.90;;;;;;5071091;28;20477;-50
2022/01/23 01:01:43;;;;;;;16.13;12.53;;;6.40;99.90;;;;;;5071502;28;20458;-49
2022/01/23 01:04:09;;;;;;;19.30;12.87;;;6.40;99.90;;;;;;5071454;28;20432;-51
2022/01/23 01:06:36;;;;;;;19.63;12.90;;;6.40;99.90;;;;;;5053565;28;20433;-50
2022/01/23 01:09:07;;;;;;;15.27;11.90;;;6.40;99.90;;;;;;5053021;28;20440;-48
2022/01/23 01:11:55;;;;;;;19.23;12.83;;;6.40;99.90;;;;;;5053667;28;20814;-48
2022/01/23 01:14:38;;;;;;;19.00;12.13;;;6.40;99.90;;;;;;5053505;28;20448;-49
2022/01/23 01:17:12;;;;;;;16.30;12.03;;;6.40;99.90;;;;;;5053490;28;20436;-49
2022/01/23 01:30:59;;;;;;;12.37;9.77;;;6.40;99.90;;;;;;5071250;28;20488;-49
2022/01/23 01:33:36;;;;;;;13.00;9.93;;;6.40;99.90;;;;;;5053182;28;20447;-49
2022/01/23 01:36:17;;;;;;;13.05;9.13;;;6.40;99.90;;;;;;5053357;28;20461;-52
2022/01/23 01:38:45;;;;;;;11.43;8.87;;;6.40;99.90;;;;;;5052670;28;20572;-51
2022/01/23 01:41:15;;;;;;;10.00;7.57;;;6.40;99.90;;;;;;5053307;28;20467;-49
2022/01/23 01:43:42;;;;;;;9.93;8.10;;;6.40;99.90;;;;;;5053089;28;20442;-49
2022/01/23 01:46:09;;;;;;;10.70;8.70;;;6.30;99.90;;;;;;5052941;28;20429;-49
2022/01/23 01:48:45;;;;;;;9.30;7.67;;;6.40;99.90;;;;;;5052605;28;20502;-50
2022/01/23 01:51:15;;;;;;;9.13;7.20;;;6.40;99.90;;;;;;5052785;28;20459;-49
2022/01/23 01:53:51;;;;;;;10.87;7.80;;;6.40;99.90;;;;;;5071204;28;20211;-50
2022/01/23 01:56:20;;;;;;;12.30;8.17;;;6.40;99.90;;;;;;5053068;28;20486;-50
2022/01/23 01:59:13;;;;;;;11.83;8.77;;;6.40;99.90;;;;;;5052410;28;20507;-48
2022/01/23 02:10:13;;;;;;;10.07;7.63;;;6.50;99.90;;;;;;5053090;28;20846;-51
2022/01/23 02:22:23;;;;;;;9.80;6.83;;;6.40;99.90;;;;;;5011500;28;20543;-49
2022/01/23 02:24:59;;;;;;;10.10;6.63;;;6.50;99.90;;;;;;5028878;28;21024;-49
2022/01/23 02:52:44;;;;;;;9.90;6.90;;;6.60;99.90;;;;;;5074047;28;20422;-49
2022/01/23 02:55:15;;;;;;;8.37;6.87;;;6.60;99.90;;;;;;5073926;28;20608;-50
2022/01/23 02:57:52;;;;;;;9.47;6.83;;;6.60;99.90;;;;;;5055565;28;20481;-50
2022/01/23 03:00:32;;;;;;;9.60;7.73;;;6.60;99.90;;;;;;5055816;28;20540;-49
2022/01/23 03:03:04;;;;;;;9.57;6.43;;;6.60;99.90;;;;;;5073984;28;20529;-48
2022/01/23 03:05:43;;;;;;;7.47;6.40;;;6.60;99.90;;;;;;5055431;28;20450;-49
2022/01/23 03:08:24;;;;;;;9.73;7.60;;;6.60;99.90;;;;;;5055574;28;20467;-50
2022/01/23 03:11:02;;;;;;;9.17;6.63;;;6.60;99.90;;;;;;5055651;28;20801;-51
2022/01/23 03:13:49;;;;;;;9.80;6.90;;;6.60;99.90;;;;;;5055792;28;20489;-51
2022/01/23 03:24:39;;;;;;;8.70;6.83;;;6.60;99.90;;;;;;5053602;28;20421;-50
2022/01/23 03:27:27;;;;;;;11.50;6.87;;;6.60;99.90;;;;;;5041233;28;20792;-49
2022/01/23 03:29:57;;;;;;;10.23;6.70;;;6.60;99.90;;;;;;5051766;28;20481;-49
2022/01/23 03:32:31;;;;;;;7.03;6.13;;;6.60;99.90;;;;;;5051982;28;20522;-50
2022/01/23 03:34:58;;;;;;;9.70;6.80;;;6.60;99.90;;;;;;5052414;28;20505;-49
2022/01/23 03:37:24;;;;;;;9.33;7.07;;;6.50;99.90;;;;;;5053106;28;20403;-49
2022/01/23 03:39:51;;;;;;;9.23;7.10;;;6.60;99.90;;;;;;5051819;28;20422;-51
2022/01/23 03:42:19;;;;;;;9.67;7.47;;;6.60;99.90;;;;;;5053505;28;20428;-49
2022/01/23 03:45:02;;;;;;;9.00;6.57;;;6.70;99.90;;;;;;5052034;28;20491;-48
2022/01/23 03:47:37;;;;;;;7.70;6.30;;;6.50;99.90;;;;;;5051554;28;20816;-50
2022/01/23 03:50:03;;;;;;;7.50;6.03;;;6.60;99.90;;;;;;5051684;28;20448;-48
2022/01/23 03:52:37;;;;;;;7.90;5.80;;;6.50;99.90;;;;;;5051617;28;20896;-49
2022/01/23 03:55:06;;;;;;;8.10;6.53;;;6.50;99.90;;;;;;5051730;28;20452;-50
2022/01/23 03:57:36;;;;;;;8.20;6.40;;;6.60;99.90;;;;;;5051354;28;20459;-48
2022/01/23 04:00:05;;;;;;;8.43;6.40;;;6.60;99.90;;;;;;5052632;28;20532;-49
2022/01/23 04:02:40;;;;;;;9.53;7.13;;;6.60;99.90;;;;;;5052468;28;20420;-50
2022/01/23 04:05:09;;;;;;;7.20;6.27;;;6.60;99.90;;;;;;5051507;28;20426;-50
2022/01/23 04:07:36;;;;;;;7.67;5.90;;;6.60;99.90;;;;;;5052456;28;20510;-49
2022/01/23 04:10:04;;;;;;;5.83;5.20;;;6.50;99.90;;;;;;5051151;28;20431;-48
2022/01/23 04:12:41;;;;;;;10.23;6.53;;;6.50;99.90;;;;;;5051349;28;20956;-50
2022/01/23 04:15:17;;;;;;;6.07;4.80;;;6.50;99.90;;;;;;5051180;28;20456;-48
2022/01/23 04:18:43;;;;;;;7.77;5.73;;;6.50;99.90;;;;;;5050529;28;20474;-49
2022/01/23 04:21:14;;;;;;;8.80;6.60;;;6.40;99.90;;;;;;5056271;28;20471;-48
2022/01/23 04:32:08;;;;;;;8.87;6.17;;;6.60;99.90;;;;;;5053823;28;20460;-47
2022/01/23 04:34:51;;;;;;;8.87;6.07;;;6.60;99.90;;;;;;5054162;28;20449;-50
2022/01/23 04:45:37;;;;;;;9.77;6.87;;;6.60;99.90;;;;;;5053707;28;20436;-50
2022/01/23 05:02:03;;;;;;;8.07;6.20;;;6.60;99.90;;;;;;5053653;28;20414;-49
2022/01/23 05:04:56;;;;;;;7.27;5.73;;;6.60;99.90;;;;;;5071615;28;20418;-50
2022/01/23 05:07:46;;;;;;;7.30;5.97;;;6.60;99.90;;;;;;5053157;28;20478;-49
2022/01/23 05:10:22;;;;;;;7.87;6.13;;;6.60;99.90;;;;;;5071726;28;20397;-50
2022/01/23 05:13:07;;;;;;;7.60;5.50;;;6.60;99.90;;;;;;5071881;28;20432;-51
2022/01/23 05:15:35;;;;;;;9.17;6.30;;;6.60;99.90;;;;;;5053539;28;20551;-50
2022/01/23 05:18:02;;;;;;;8.07;6.20;;;6.60;99.90;;;;;;5070931;28;20512;-50
2022/01/23 05:20:31;;;;;;;7.50;6.67;;;6.60;99.90;;;;;;5071358;28;20405;-49
2022/01/23 05:23:02;;;;;;;8.10;5.90;;;6.60;99.90;;;;;;5071267;28;20478;-51
2022/01/23 05:25:31;;;;;;;9.20;6.60;;;6.50;99.90;;;;;;5053458;28;20465;-49
2022/01/23 05:27:58;;;;;;;9.07;6.43;;;6.50;99.90;;;;;;5052737;28;20573;-50
2022/01/23 05:30:25;;;;;;;7.07;5.97;;;6.60;99.90;;;;;;5053281;28;20411;-48
2022/01/23 05:32:52;;;;;;;8.10;6.07;;;6.50;99.90;;;;;;5071156;28;20532;-49
2022/01/23 05:35:22;;;;;;;6.87;5.83;;;6.60;99.90;;;;;;5053401;28;20953;-49
2022/01/23 05:37:51;;;;;;;9.63;6.30;;;6.60;99.90;;;;;;5052871;28;20442;-49
2022/01/23 05:40:22;;;;;;;6.50;5.40;;;6.60;99.90;;;;;;5053311;28;20451;-51
2022/01/23 05:42:54;;;;;;;7.23;6.00;;;6.60;99.90;;;;;;5053573;28;20429;-49
2022/01/23 05:45:21;;;;;;;7.20;5.77;;;6.60;99.90;;;;;;5053443;28;20454;-50
2022/01/23 05:48:06;;;;;;;9.80;6.53;;;6.60;99.90;;;;;;5070820;28;20453;-48
2022/01/23 05:50:51;;;;;;;7.43;5.50;;;6.70;99.90;;;;;;5071364;28;20990;-50
2022/01/23 05:53:36;;;;;;;9.30;6.27;;;6.50;99.90;;;;;;5053084;28;20433;-48
2022/01/23 05:56:21;;;;;;;9.70;7.83;;;6.60;99.90;;;;;;5071278;28;20477;-49
2022/01/23 05:58:51;;;;;;;8.77;6.57;;;6.60;99.90;;;;;;5072887;28;20478;-50
2022/01/23 06:01:19;;;;;;;12.30;6.70;;;6.60;99.90;;;;;;5057163;28;20478;-51
2022/01/23 06:03:48;;;;;;;10.70;7.27;;;6.70;99.90;;;;;;5057219;28;20806;-49
2022/01/23 06:06:17;;;;;;;9.67;6.80;;;6.70;99.90;;;;;;5057105;28;20442;-50
2022/01/23 06:08:45;;;;;;;13.83;8.60;;;6.70;99.90;;;;;;5074259;28;21005;-47
2022/01/23 06:11:12;;;;;;;11.40;8.20;;;6.70;99.90;;;;;;5056752;28;20536;-49
2022/01/23 06:13:41;;;;;;;13.33;9.20;;;6.60;99.90;;;;;;5056619;28;20447;-50
2022/01/23 06:16:10;;;;;;;11.87;8.60;;;6.60;99.90;;;;;;5056806;28;20480;-50
2022/01/23 06:18:40;;;;;;;11.33;7.93;;;6.60;99.90;;;;;;5056110;28;20807;-48
2022/01/23 06:21:42;;;;;;;11.23;8.00;;;6.70;99.90;;;;;;5074323;28;20529;-51
2022/01/23 06:24:33;;;;;;;11.50;9.07;;;6.60;99.90;;;;;;5056775;28;20553;-50
2022/01/23 06:27:19;;;;;;;11.63;8.83;;;6.70;99.90;;;;;;5074713;28;20494;-50
2022/01/23 06:29:46;;;;;;;9.77;8.07;;;6.70;99.90;;;;;;5074208;28;21003;-51
2022/01/23 06:32:14;;;;;;;11.13;8.67;;;6.70;99.90;;;;;;5056579;28;20453;-51
2022/01/23 06:34:42;;;;;;;12.00;8.90;;;6.60;99.90;;;;;;5074139;28;20496;-49
2022/01/23 06:37:09;;;;;;;11.87;8.40;;;6.70;99.90;;;;;;5074279;28;20443;-49
2022/01/23 06:39:37;;;;;;;11.93;8.17;;;6.70;99.90;;;;;;5055717;28;20467;-48
2022/01/23 06:42:05;;;;;;;12.20;8.63;;;6.70;99.90;;;;;;5056395;28;21084;-49
2022/01/23 06:44:35;;;;;;;14.10;10.20;;;6.70;99.90;;;;;;5074150;28;20763;-48
2022/01/23 06:47:04;;;;;;;11.40;8.37;;;6.70;99.90;;;;;;5056181;28;20835;-49
2022/01/23 06:49:31;;;;;;;11.50;8.83;;;6.70;99.90;;;;;;5055827;28;20474;-48
2022/01/23 06:51:58;;;;;;;12.20;9.23;;;6.70;99.90;;;;;;5056307;28;20970;-49
2022/01/23 06:54:27;;;;;;;12.50;9.30;;;6.70;99.90;;;;;;5056090;28;20849;-49
2022/01/23 06:56:56;;;;;;;12.40;9.23;;;6.70;99.90;;;;;;5055968;28;20428;-49
2022/01/23 06:59:23;;;;;;;13.47;8.87;;;6.70;99.90;;;;;;5055349;28;20820;-48
2022/01/23 07:02:09;;;;;;;11.50;8.60;;;6.70;99.90;;;;;;5074011;28;20757;-49
2022/01/23 07:04:44;;;;;;;13.47;10.33;;;6.70;99.90;;;;;;5055927;28;20455;-48
2022/01/23 07:07:27;;;;;;;10.20;8.37;;;6.60;99.90;;;;;;5055920;28;20451;-48
2022/01/23 07:10:22;;;;;;;10.90;8.93;;;6.60;99.90;;;;;;5055592;28;20931;-48
2022/01/23 07:13:09;;;;;;;10.53;8.40;;;6.70;99.90;;;;;;5073797;28;20888;-48
2022/01/23 07:15:54;;;;;;;13.27;8.63;;;6.70;99.90;;;;;;5073534;28;20966;-50
2022/01/23 07:18:35;;;;;;;10.10;7.50;;;6.50;99.90;;;;;;5073325;28;20516;-49
2022/01/23 07:21:10;;;;;;;13.00;9.43;;;6.70;99.90;;;;;;5052087;28;20467;-49
2022/01/23 07:23:39;;;;;;;13.83;9.57;;;6.70;99.90;;;;;;5035620;28;20825;-49
2022/01/23 07:26:07;;;;;;;13.10;9.20;;;6.70;99.90;;;;;;5036122;28;20423;-49
2022/01/23 07:28:41;;;;;;;10.53;8.43;;;6.70;99.90;;;;;;5054985;28;20558;-49
2022/01/23 07:31:10;;;;;;;13.03;8.60;;;6.80;99.90;;;;;;5055118;28;20456;-48
2022/01/23 07:33:38;;;;;;;10.53;8.17;;;6.80;99.90;;;;;;5055393;28;20500;-49
2022/01/23 07:36:06;;;;;;;11.20;8.20;;;6.80;99.90;;;;;;5054932;28;20509;-49
2022/01/23 07:38:32;;;;;;;14.27;11.43;;;6.80;99.90;;;;;;5054765;28;20442;-48
2022/01/23 07:41:24;;;;;;;9.40;7.73;;;6.80;99.90;;;;;;5054928;28;20540;-48
2022/01/23 07:44:02;;;;;;;10.60;8.30;;;6.80;99.90;;;;;;5054999;28;20422;-48
2022/01/23 07:46:45;;;;;;;10.47;7.87;;;6.80;99.90;;;;;;5054815;28;20512;-50
2022/01/23 07:49:16;;;;;;;10.80;8.07;;;6.80;99.90;;;;;;5054475;28;20963;-48
2022/01/23 07:52:04;;;;;;;9.73;7.47;;;6.80;99.90;;;;;;5041247;28;20545;-49
2022/01/23 07:54:47;;;;;;;12.87;8.50;;;6.90;99.90;;;;;;5054863;28;20453;-49
2022/01/23 07:57:26;;;;;;;10.00;8.30;;;6.90;99.90;;;;;;5054423;28;20874;-49
2022/01/23 08:00:00;;;;;;;12.10;9.03;;;6.90;99.90;;;;;;5054499;28;20430;-49
2022/01/23 08:02:45;;;;;;;10.97;8.00;;;6.90;99.90;;;;;;5072990;28;20486;-48
2022/01/23 08:05:50;;;;;;;10.63;8.10;;;6.90;99.90;;;;;;5055261;28;20443;-48
2022/01/23 08:08:48;;;;;;;12.50;8.87;;;6.90;99.90;;;;;;5071829;28;20457;-50
2022/01/23 08:11:17;;;;;;;13.53;8.87;;;6.90;99.90;;;;;;5072422;28;20800;-49
2022/01/23 08:13:44;;;;;;;11.83;8.30;;;7.00;99.90;;;;;;5072392;28;20419;-50
2022/01/23 08:16:12;;;;;;;12.97;8.90;;;7.00;99.90;;;;;;5072220;28;20435;-48
2022/01/23 08:18:38;;;;;;;10.70;8.00;;;7.00;99.90;;;;;;5071884;28;20435;-51
2022/01/23 08:21:05;;;;;;;10.53;7.73;;;7.10;99.90;;;;;;5071430;28;21009;-49
2022/01/23 08:23:32;;;;;;;9.03;7.40;;;7.10;99.90;;;;;;5072310;28;20402;-49
2022/01/23 08:25:58;;;;;;;9.47;7.30;;;7.10;99.90;;;;;;5071977;28;20496;-50
2022/01/23 08:28:25;;;;;;;9.70;7.13;;;7.20;99.90;;;;;;5071689;28;20447;-48
2022/01/23 08:30:52;;;;;;;11.13;8.40;;;7.30;99.90;;;;;;5072092;28;20436;-48
2022/01/23 08:33:20;;;;;;;9.83;7.67;;;7.30;99.90;;;;;;5071850;28;20476;-49
2022/01/23 08:35:47;;;;;;;9.67;7.70;;;7.30;99.90;;;;;;5072011;28;20441;-49
2022/01/23 08:38:14;;;;;;;10.90;6.93;;;7.30;99.90;;;;;;5071368;28;20456;-49
2022/01/23 08:41:49;;;;;;;9.60;7.70;;;7.40;99.90;;;;;;5072153;28;20426;-49
2022/01/23 08:43:35;;;;;;;10.40;7.80;;;7.40;99.90;;;;;;5072008;28;20505;-49
2022/01/23 08:46:01;;;;;;;11.30;7.20;;;7.40;99.90;;;;;;5071884;28;20439;-49
2022/01/23 08:48:29;;;;;;;8.87;6.93;;;7.40;99.90;;;;;;5071163;28;20431;-48
2022/01/23 08:50:56;;;;;;;10.23;8.20;;;7.50;99.90;;;;;;5071825;28;20938;-49
2022/01/23 08:53:23;;;;;;;8.90;7.30;;;7.30;99.90;;;;;;5071438;28;20490;-50
2022/01/23 08:55:49;;;;;;;8.30;6.93;;;7.40;99.90;;;;;;5071491;28;20421;-50
2022/01/23 08:58:16;;;;;;;8.63;5.97;;;7.30;99.90;;;;;;5070966;28;20935;-50
2022/01/23 09:00:43;;;;;;;9.60;6.53;;;7.40;99.90;;;;;;5071688;28;20477;-50
2022/01/23 09:03:10;;;;;;;7.90;5.93;;;7.40;99.90;;;;;;5071554;28;20433;-50
2022/01/23 09:05:38;;;;;;;7.83;6.47;;;7.40;99.90;;;;;;5071438;28;20428;-51
2022/01/23 09:08:05;;;;;;;10.63;8.07;;;7.40;99.90;;;;;;5071070;28;20774;-49
2022/01/23 09:10:40;;;;;;;8.63;6.93;;;7.40;99.90;;;;;;5071477;28;20428;-50
2022/01/23 09:13:11;;;;;;;10.40;8.60;;;7.50;99.90;;;;;;5071422;28;21222;-50
2022/01/23 09:15:37;;;;;;;8.67;6.20;;;7.50;99.90;;;;;;5071423;28;20438;-50
2022/01/23 09:18:05;;;;;;;8.83;6.90;;;7.50;99.90;;;;;;5070659;28;20447;-49
2022/01/23 09:20:32;;;;;;;7.13;5.87;;;7.50;99.90;;;;;;5071163;28;20430;-50
2022/01/23 09:23:00;;;;;;;8.40;6.87;;;7.50;99.90;;;;;;5071208;28;20436;-50
2022/01/23 09:25:26;;;;;;;8.27;7.00;;;7.60;99.90;;;;;;5071074;28;20445;-49
2022/01/23 09:27:55;;;;;;;7.37;6.30;;;7.60;99.90;;;;;;5070834;28;20471;-48
2022/01/23 09:30:22;;;;;;;7.70;6.30;;;7.70;99.90;;;;;;5071266;28;20407;-49
2022/01/23 09:32:51;;;;;;;6.83;5.70;;;7.70;99.90;;;;;;5071893;28;21011;-49
2022/01/23 09:35:19;;;;;;;7.17;5.60;;;7.80;99.90;;;;;;5075257;28;20405;-51
2022/01/23 09:37:46;;;;;;;8.23;6.00;;;7.80;99.90;;;;;;5056591;28;20511;-50
2022/01/23 09:40:15;;;;;;;8.50;6.73;;;7.80;99.90;;;;;;5075655;28;20952;-48
2022/01/23 09:42:44;;;;;;;7.53;6.50;;;7.70;99.90;;;;;;5074723;28;20850;-48
2022/01/23 09:45:13;;;;;;;10.80;7.23;;;7.80;99.90;;;;;;5074913;28;20790;-47
2022/01/23 09:47:41;;;;;;;8.80;7.17;;;7.80;99.90;;;;;;5074663;28;20546;-51
2022/01/23 09:50:10;;;;;;;7.97;6.60;;;7.80;99.90;;;;;;5075086;28;20455;-48
2022/01/23 09:52:37;;;;;;;8.27;6.90;;;7.80;99.90;;;;;;5074479;28;20544;-49
2022/01/23 09:55:10;;;;;;;7.97;6.17;;;7.80;99.90;;;;;;5074914;28;20930;-49
2022/01/23 09:57:41;;;;;;;10.70;6.93;;;7.80;99.90;;;;;;5074448;28;20468;-49
2022/01/23 10:00:11;;;;;;;10.20;7.60;;;7.90;99.90;;;;;;5074733;28;20412;-48
2022/01/23 10:02:46;;;;;;;10.10;7.17;;;8.00;99.90;;;;;;5075181;28;20388;-50
2022/01/23 10:05:14;;;;;;;10.40;8.50;;;8.00;99.90;;;;;;5074730;28;20443;-48
2022/01/23 10:07:43;;;;;;;11.53;5.87;;;8.00;99.90;;;;;;5074769;28;20467;-48
2022/01/23 10:10:15;;;;;;;8.87;6.40;;;8.10;99.90;;;;;;5074953;28;20948;-48
2022/01/23 10:12:46;;;;;;;7.20;6.17;;;8.10;99.90;;;;;;5074985;28;20471;-47
2022/01/23 10:15:13;;;;;;;8.53;6.40;;;8.00;99.90;;;;;;5074496;28;20437;-48
2022/01/23 10:17:41;;;;;;;8.50;6.80;;;8.00;99.90;;;;;;5073833;28;20540;-50
2022/01/23 10:20:10;;;;;;;8.97;5.53;;;8.00;99.90;;;;;;5074592;28;20440;-48
2022/01/23 10:22:37;;;;;;;7.90;5.80;;;8.00;99.90;;;;;;5074424;28;20436;-48
2022/01/23 10:25:08;;;;;;;8.33;6.07;;;8.00;99.90;;;;;;5074376;28;20432;-49
2022/01/23 10:27:57;;;;;;;10.90;8.90;;;8.10;99.90;;;;;;5073994;28;20435;-49
2022/01/23 10:30:26;;;;;;;10.47;7.73;;;8.10;99.90;;;;;;5074163;28;20922;-51
2022/01/23 10:32:57;;;;;;;11.27;6.00;;;8.10;99.90;;;;;;5073913;28;20565;-52
2022/01/23 10:35:24;;;;;;;11.40;6.97;;;8.10;99.90;;;;;;5056048;28;20476;-51
2022/01/23 10:37:53;;;;;;;10.47;7.50;;;8.10;99.90;;;;;;5073439;28;20453;-51
2022/01/23 10:40:29;;;;;;;11.73;8.00;;;8.10;99.90;;;;;;5073422;28;20778;-50
2022/01/23 10:48:39;;;;;;;8.67;6.70;;;8.20;99.90;;;;;;5073607;28;20514;-51
2022/01/23 10:51:26;;;;;;;7.30;5.77;;;8.20;99.90;;;;;;5073825;28;20489;-51
2022/01/23 10:54:11;;;;;;;7.73;6.17;;;8.20;99.90;;;;;;5073404;28;21027;-51
2022/01/23 10:56:53;;;;;;;9.50;6.87;;;8.30;99.90;;;;;;5073846;28;20437;-51
2022/01/23 10:59:22;;;;;;;8.53;6.17;;;8.30;99.90;;;;;;5073555;28;20477;-50
2022/01/23 11:02:04;;;;;;;10.87;7.27;;;8.30;99.90;;;;;;5073513;28;20411;-50
2022/01/23 11:04:32;;;;;;;7.23;5.57;;;8.30;99.90;;;;;;5073764;28;20429;-50
2022/01/23 11:07:00;;;;;;;6.43;5.70;;;8.30;99.90;;;;;;5055107;28;20458;-49
2022/01/23 11:09:30;;;;;;;7.13;5.57;;;8.30;99.90;;;;;;5073035;28;20536;-50
2022/01/23 11:12:12;;;;;;;7.67;5.93;;;8.20;99.90;;;;;;5073094;28;20955;-50
2022/01/23 11:17:26;;;;;;;10.37;7.10;;;8.20;99.90;;;;;;5073153;28;20454;-50
2022/01/23 11:19:55;;;;;;;9.20;7.40;;;8.30;99.90;;;;;;5072829;28;20416;-50
2022/01/23 11:22:24;;;;;;;10.47;6.10;;;8.40;99.90;;;;;;5073102;28;20453;-49
2022/01/23 11:24:52;;;;;;;8.80;6.13;;;8.40;99.90;;;;;;5073170;28;20457;-49
2022/01/23 11:27:21;;;;;;;7.27;5.70;;;8.50;99.90;;;;;;5072717;28;20905;-49
2022/01/23 11:30:02;;;;;;;8.20;5.80;;;8.50;99.90;;;;;;5072666;28;20457;-50
2022/01/23 11:32:34;;;;;;;8.17;6.40;;;8.60;99.90;;;;;;5072608;28;20432;-52
2022/01/23 11:35:06;;;;;;;4.77;3.63;;;8.60;99.90;;;;;;5072881;28;20957;-51
2022/01/23 11:37:33;;;;;;;5.37;4.43;;;8.60;99.90;;;;;;5072394;28;21042;-50
2022/01/23 11:40:06;;;;;;;8.20;5.10;;;8.60;99.90;;;;;;5072242;28;20437;-51
2022/01/23 11:51:20;;;;;;;10.13;5.30;;;8.70;99.90;;;;;;5072305;28;20945;-51
2022/01/23 11:53:53;;;;;;;5.50;4.40;;;8.60;99.90;;;;;;5072377;28;20459;-51
2022/01/23 11:56:47;;;;;;;7.00;5.23;;;8.60;99.90;;;;;;5071741;28;20429;-51
2022/01/23 11:59:48;;;;;;;8.30;6.40;;;8.50;99.90;;;;;;5071375;28;20449;-51
2022/01/23 12:02:26;;;;;;;9.77;5.80;;;8.60;99.90;;;;;;5072285;28;20441;-50
2022/01/23 12:05:26;;;;;;;14.17;7.87;;;8.60;99.90;;;;;;5072417;28;20432;-51
2022/01/23 12:08:28;;;;;;;10.07;6.83;;;8.70;99.90;;;;;;5071322;28;20825;-51
2022/01/23 12:17:15;;;;;;;7.03;5.03;;;8.60;99.90;;;;;;5072280;28;20483;-51
2022/01/23 12:19:49;;;;;;;9.33;5.90;;;8.60;99.90;;;;;;5071705;28;20444;-51
2022/01/23 12:22:26;;;;;;;9.23;7.00;;;8.60;99.90;;;;;;5071933;28;20487;-51
2022/01/23 12:24:56;;;;;;;9.63;5.80;;;8.60;99.90;;;;;;5071850;28;20463;-51
2022/01/23 12:27:26;;;;;;;10.60;6.10;;;8.60;99.90;;;;;;5071598;28;20433;-52
2022/01/23 12:29:55;;;;;;;8.37;5.50;;;8.60;99.90;;;;;;5071794;28;20452;-51
2022/01/23 12:32:26;;;;;;;9.87;5.17;;;8.70;99.90;;;;;;5072362;28;20756;-51
2022/01/23 12:34:57;;;;;;;8.60;4.80;;;8.70;99.90;;;;;;5071619;28;20512;-51
2022/01/23 12:37:24;;;;;;;9.10;4.57;;;8.70;99.90;;;;;;5071438;28;20509;-49
2022/01/23 12:40:27;;;;;;;5.30;4.50;;;8.80;99.90;;;;;;5071302;28;20429;-50
2022/01/23 12:43:05;;;;;;;8.17;4.00;;;8.80;99.90;;;;;;5071537;28;20957;-50
2022/01/23 12:45:48;;;;;;;5.53;4.40;;;8.80;99.90;;;;;;5071514;28;20433;-50
2022/01/23 12:48:45;;;;;;;8.73;6.00;;;8.80;99.90;;;;;;5071200;28;20468;-50
2022/01/23 12:51:33;;;;;;;8.23;4.50;;;8.80;99.90;;;;;;5071312;28;20496;-50
2022/01/23 12:54:11;;;;;;;5.93;4.93;;;8.80;99.90;;;;;;5071536;28;20473;-50
2022/01/23 12:56:42;;;;;;;9.73;6.50;;;8.70;99.90;;;;;;5071290;28;20800;-50
2022/01/23 12:59:12;;;;;;;9.00;6.70;;;8.70;99.90;;;;;;5070626;28;20828;-51
2022/01/23 13:01:43;;;;;;;5.20;4.30;;;8.70;99.90;;;;;;5071364;28;20449;-50
2022/01/23 13:04:10;;;;;;;6.10;5.07;;;8.70;99.90;;;;;;5071264;28;20413;-52
2022/01/23 13:06:48;;;;;;;8.03;5.23;;;8.70;99.90;;;;;;5071019;28;20445;-51
2022/01/23 13:09:21;;;;;;;6.97;3.30;;;8.60;99.90;;;;;;5070593;28;20468;-51
2022/01/23 13:12:08;;;;;;;4.80;3.20;;;8.60;99.90;;;;;;5070847;28;20461;-50
2022/01/23 13:14:42;;;;;;;7.10;3.40;;;8.60;99.90;;;;;;5070900;28;20476;-51
2022/01/23 13:17:29;;;;;;;4.50;3.40;;;8.50;99.90;;;;;;5070862;28;20434;-50
2022/01/23 13:31:07;;;;;;;5.57;4.40;;;8.40;99.90;;;;;;5070865;28;20448;-50
2022/01/23 13:33:34;;;;;;;5.83;4.20;;;8.40;99.90;;;;;;5070195;28;20476;-50
2022/01/23 13:36:03;;;;;;;4.70;4.13;;;8.40;99.90;;;;;;5052766;28;20453;-50
2022/01/23 13:38:34;;;;;;;6.30;3.97;;;8.40;99.90;;;;;;5070680;28;20432;-51
2022/01/23 13:41:09;;;;;;;4.77;3.73;;;8.40;99.90;;;;;;5070464;28;20866;-51
2022/01/23 13:52:37;;;;;;;3.60;2.80;;;8.40;99.90;;;;;;5027785;28;20983;-51
2022/01/23 13:58:21;;;;;;;4.00;2.90;;;8.40;99.90;;;;;;5069718;28;20508;-50
2022/01/23 14:00:58;;;;;;;4.20;2.90;;;8.40;99.90;;;;;;5070939;28;20440;-51
2022/01/23 14:03:24;;;;;;;3.50;2.20;;;8.40;99.90;;;;;;5070666;28;20524;-50
2022/01/23 14:05:51;;;;;;;3.83;3.07;;;8.40;99.90;;;;;;5070488;28;20440;-50
2022/01/23 14:08:19;;;;;;;3.30;2.80;;;8.40;99.90;;;;;;5069702;28;20464;-50
2022/01/23 14:10:54;;;;;;;4.17;3.20;;;8.40;99.90;;;;;;5070871;28;20436;-50
2022/01/23 14:13:20;;;;;;;5.73;2.80;;;8.40;99.90;;;;;;5070331;28;20598;-50
2022/01/23 14:15:49;;;;;;;4.43;2.93;;;8.40;99.90;;;;;;5070150;28;20445;-51
2022/01/23 14:18:21;;;;;;;4.60;3.50;;;8.40;99.90;;;;;;5070346;28;20790;-51
2022/01/23 14:20:57;;;;;;;3.00;2.33;;;8.40;99.90;;;;;;5074395;28;20437;-51
2022/01/23 14:23:23;;;;;;;2.60;2.40;;;8.40;99.90;;;;;;5073876;28;20421;-50
2022/01/23 14:25:53;;;;;;;5.90;2.80;;;8.30;99.90;;;;;;5073726;28;20430;-51
2022/01/23 14:28:22;;;;;;;4.20;2.27;;;8.30;99.90;;;;;;5073518;28;20472;-50
2022/01/23 14:30:51;;;;;;;4.97;2.20;;;8.30;99.90;;;;;;5073869;28;20792;-50
2022/01/23 14:33:21;;;;;;;4.17;2.17;;;8.30;99.90;;;;;;5073484;28;20437;-50
2022/01/23 14:35:49;;;;;;;3.00;2.23;;;8.30;99.90;;;;;;5074065;28;20434;-51
2022/01/23 14:38:17;;;;;;;3.23;2.63;;;8.30;99.90;;;;;;5073625;28;20465;-50
2022/01/23 14:40:58;;;;;;;3.17;2.60;;;8.30;99.90;;;;;;5073479;28;20805;-51
2022/01/23 14:43:33;;;;;;;3.70;2.47;;;8.40;99.90;;;;;;5073883;28;20452;-50
2022/01/23 14:46:03;;;;;;;3.10;2.53;;;8.30;99.90;;;;;;5073587;28;20436;-50
2022/01/23 14:48:31;;;;;;;3.20;2.80;;;8.40;99.90;;;;;;5073099;28;20847;-51
2022/01/23 14:51:03;;;;;;;4.70;2.93;;;8.30;99.90;;;;;;5073888;28;20817;-51
2022/01/23 14:53:30;;;;;;;6.97;3.67;;;8.30;99.90;;;;;;5073388;28;20589;-50
2022/01/23 14:56:01;;;;;;;3.63;3.23;;;8.40;99.90;;;;;;5073395;28;20436;-50
2022/01/23 14:58:30;;;;;;;5.50;3.53;;;8.40;99.90;;;;;;5073056;28;20461;-51
2022/01/23 15:00:58;;;;;;;6.87;4.30;;;8.40;99.90;;;;;;5072730;28;20469;-50
2022/01/23 15:03:27;;;;;;;5.63;4.37;;;8.40;99.90;;;;;;5073537;28;20438;-50
2022/01/23 15:05:54;;;;;;;6.30;4.10;;;8.40;99.90;;;;;;5073493;28;20438;-51
2022/01/23 15:08:23;;;;;;;4.50;3.37;;;8.40;99.90;;;;;;5072096;28;20436;-50
2022/01/23 15:10:52;;;;;;;4.03;3.00;;;8.40;99.90;;;;;;5073043;28;20524;-50
2022/01/23 15:13:22;;;;;;;4.13;3.50;;;8.40;99.90;;;;;;5072749;28;20510;-49
2022/01/23 15:15:49;;;;;;;4.03;3.17;;;8.40;99.90;;;;;;5072924;28;20441;-50
2022/01/23 15:18:16;;;;;;;3.40;3.00;;;8.40;99.90;;;;;;5072586;28;20464;-50
2022/01/23 15:20:43;;;;;;;4.53;3.63;;;8.30;99.90;;;;;;5072529;28;20889;-51
2022/01/23 15:23:11;;;;;;;5.83;4.43;;;8.30;99.90;;;;;;5073062;28;20441;-50
2022/01/23 15:25:38;;;;;;;5.93;3.97;;;8.30;99.90;;;;;;5072813;28;20495;-50
2022/01/23 15:28:05;;;;;;;5.03;3.30;;;8.30;99.90;;;;;;5072423;28;20483;-50
2022/01/23 15:30:36;;;;;;;5.70;3.20;;;8.30;99.90;;;;;;5073076;28;20491;-50
2022/01/23 15:33:03;;;;;;;4.87;2.50;;;8.30;99.90;;;;;;5073285;28;20438;-51
2022/01/23 15:35:30;;;;;;;3.97;2.80;;;8.30;99.90;;;;;;5071720;28;20841;-50
2022/01/23 15:37:57;;;;;;;5.13;2.63;;;8.20;99.90;;;;;;5072216;28;20452;-51
2022/01/23 15:40:24;;;;;;;2.63;2.37;;;8.20;99.90;;;;;;5072437;28;20923;-50
2022/01/23 15:42:53;;;;;;;5.73;3.63;;;8.30;99.90;;;;;;5073103;28;20426;-50
2022/01/23 15:45:21;;;;;;;2.97;2.10;;;8.20;99.90;;;;;;5072548;28;20945;-50
2022/01/23 15:47:50;;;;;;;5.67;3.27;;;8.20;99.90;;;;;;5071762;28;20468;-50
2022/01/23 15:50:19;;;;;;;4.20;3.27;;;8.20;99.90;;;;;;5072686;28;20975;-50
2022/01/23 15:52:46;;;;;;;4.07;2.70;;;8.20;99.90;;;;;;5072479;28;20437;-52